createdAt,value
2023-02-06T00:01:52.968Z,72.83
2023-02-06T00:04:21.491Z,73.02
2023-02-06T00:06:50.611Z,72.71
2023-02-06T00:09:19.180Z,72.85
2023-02-06T00:11:47.747Z,73.02
2023-02-06T00:14:16.348Z,72.75
2023-02-06T00:16:44.909Z,72.88
2023-02-06T00:19:13.549Z,73.05
2023-02-06T00:21:43.020Z,73.12
2023-02-06T00:24:13.881Z,73.62
2023-02-06T00:26:42.530Z,73.56
2023-02-06T00:29:11.250Z,73.55
2023-02-06T00:31:39.915Z,73.37
2023-02-06T00:34:08.536Z,73.59
2023-02-06T00:36:39.509Z,73.42
2023-02-06T00:39:09.615Z,73.16
2023-02-06T00:41:40.681Z,73.26
2023-02-06T00:44:09.847Z,73.18
2023-02-06T00:46:39.928Z,73.41
2023-02-06T00:49:09.094Z,73.18
2023-02-06T00:51:38.985Z,73.30
2023-02-06T00:54:08.508Z,73.44
2023-02-06T00:56:37.093Z,73.20
2023-02-06T00:59:05.699Z,73.06
2023-02-06T01:01:34.880Z,73.10
2023-02-06T01:04:05.573Z,73.44
2023-02-06T01:06:34.235Z,73.59
2023-02-06T01:09:03.084Z,73.48
2023-02-06T01:11:33.373Z,73.25
2023-02-06T01:14:02.349Z,73.17
2023-02-06T01:16:31.094Z,72.98
2023-02-06T01:18:59.691Z,73.33
2023-02-06T01:21:28.320Z,73.27
2023-02-06T01:23:59.638Z,73.27
2023-02-06T01:26:28.585Z,73.39
2023-02-06T01:28:59.658Z,73.29
2023-02-06T01:31:30.220Z,73.31
2023-02-06T01:34:00.744Z,73.31
2023-02-06T01:36:29.519Z,73.54
2023-02-06T01:38:58.549Z,73.62
2023-02-06T01:41:27.256Z,73.77
2023-02-06T01:44:17.789Z,73.69
2023-02-06T01:46:48.652Z,73.81
2023-02-06T01:49:27.790Z,73.59
2023-02-06T01:52:04.649Z,73.73
2023-02-06T01:54:33.442Z,73.98
2023-02-06T01:57:07.240Z,74.01
2023-02-06T01:59:37.149Z,73.68
2023-02-06T02:02:06.180Z,73.93
2023-02-06T02:04:38.755Z,73.93
2023-02-06T02:07:28.946Z,74.13
2023-02-06T02:09:57.449Z,74.16
2023-02-06T02:12:29.614Z,74.21
2023-02-06T02:14:59.288Z,73.99
2023-02-06T02:17:59.550Z,74.09
2023-02-06T02:20:43.253Z,74.25
2023-02-06T02:23:33.185Z,74.17
2023-02-06T02:26:33.693Z,74.03
2023-02-06T02:29:33.645Z,74.06
2023-02-06T02:32:46.901Z,74.15
2023-02-06T02:35:53.944Z,73.95
2023-02-06T02:38:41.660Z,73.68
2023-02-06T02:41:27.456Z,73.58
2023-02-06T02:44:04.805Z,73.59
2023-02-06T02:46:37.822Z,73.81
2023-02-06T02:49:15.839Z,74.05
2023-02-06T02:51:49.844Z,73.78
2023-02-06T02:54:18.659Z,73.70
2023-02-06T02:56:47.385Z,73.86
2023-02-06T02:59:50.704Z,73.12
2023-02-06T03:02:31.962Z,73.16
2023-02-06T03:05:06.042Z,73.17
2023-02-06T03:07:50.657Z,73.51
2023-02-06T03:10:41.148Z,73.53
2023-02-06T03:13:21.870Z,73.49
2023-02-06T03:16:23.037Z,73.16
2023-02-06T03:19:14.357Z,73.22
2023-02-06T03:21:45.262Z,73.02
2023-02-06T03:24:19.810Z,73.38
2023-02-06T03:26:51.270Z,73.44
2023-02-06T03:29:21.047Z,73.00
2023-02-06T03:31:54.506Z,72.78
2023-02-06T03:34:33.619Z,72.83
2023-02-06T03:37:02.317Z,73.15
2023-02-06T03:39:33.512Z,73.21
2023-02-06T03:42:04.928Z,72.95
2023-02-06T03:44:42.140Z,73.19
2023-02-06T03:47:12.654Z,72.95
2023-02-06T03:49:43.476Z,72.70
2023-02-06T03:52:18.442Z,72.69
2023-02-06T03:55:04.916Z,73.01
2023-02-06T03:57:35.911Z,73.51
2023-02-06T04:00:06.153Z,73.27
2023-02-06T04:02:46.264Z,73.13
2023-02-06T04:05:18.217Z,73.04
2023-02-06T04:07:49.390Z,73.04
2023-02-06T04:10:17.935Z,73.23
2023-02-06T04:12:46.534Z,73.13
2023-02-06T04:15:15.665Z,73.16
2023-02-06T04:17:58.812Z,72.91
2023-02-06T04:20:29.859Z,72.95
2023-02-06T04:22:59.607Z,73.16
2023-02-06T04:25:30.347Z,73.06
2023-02-06T04:27:59.342Z,73.00
2023-02-06T04:30:27.951Z,73.35
2023-02-06T04:32:56.593Z,73.52
2023-02-06T04:35:27.357Z,73.77
2023-02-06T04:37:58.563Z,73.41
2023-02-06T04:40:27.144Z,73.77
2023-02-06T04:42:55.724Z,73.81
2023-02-06T04:45:24.390Z,73.58
2023-02-06T04:47:53.209Z,73.29
2023-02-06T04:50:21.783Z,73.38
2023-02-06T04:52:50.673Z,73.42
2023-02-06T04:55:19.755Z,73.38
2023-02-06T04:57:48.427Z,73.50
2023-02-06T05:00:17.351Z,73.63
2023-02-06T05:02:48.790Z,73.52
2023-02-06T05:05:17.437Z,73.41
2023-02-06T05:07:45.963Z,73.21
2023-02-06T05:10:17.763Z,73.36
2023-02-06T05:12:47.516Z,73.40
2023-02-06T05:15:16.165Z,73.33
2023-02-06T05:17:46.974Z,73.17
2023-02-06T05:20:15.504Z,73.38
2023-02-06T05:22:44.096Z,73.14
2023-02-06T05:25:12.562Z,73.34
2023-02-06T05:27:41.791Z,73.26
2023-02-06T05:30:11.138Z,73.44
2023-02-06T05:32:39.931Z,73.33
2023-02-06T05:35:08.791Z,72.91
2023-02-06T05:37:40.759Z,73.00
2023-02-06T05:40:10.377Z,72.86
2023-02-06T05:42:40.348Z,72.95
2023-02-06T05:45:13.921Z,73.18
2023-02-06T05:47:42.470Z,73.45
2023-02-06T05:50:11.024Z,73.35
2023-02-06T05:52:40.034Z,73.10
2023-02-06T05:55:16.244Z,73.25
2023-02-06T05:57:47.800Z,72.77
2023-02-06T06:00:16.882Z,72.60
2023-02-06T06:02:46.973Z,72.93
2023-02-06T06:05:15.819Z,72.92
2023-02-06T06:07:44.380Z,72.90
2023-02-06T06:10:12.973Z,72.42
2023-02-06T06:12:45.089Z,72.78
2023-02-06T06:15:13.860Z,72.88
2023-02-06T06:17:42.530Z,71.51
2023-02-06T06:20:12.161Z,71.70
2023-02-06T06:22:40.794Z,71.98
2023-02-06T06:25:12.382Z,72.11
2023-02-06T06:27:43.670Z,71.99
2023-02-06T06:30:13.442Z,73.13
2023-02-06T06:32:42.088Z,71.02
2023-02-06T06:35:10.996Z,68.70
2023-02-06T06:37:39.683Z,64.05
2023-02-06T06:40:08.688Z,63.94
2023-02-06T06:42:37.258Z,63.12
2023-02-06T06:45:10.259Z,61.89
2023-02-06T06:47:41.926Z,62.99
2023-02-06T06:50:11.712Z,62.88
2023-02-06T06:52:40.177Z,63.72
2023-02-06T06:55:09.715Z,64.98
2023-02-06T06:57:38.235Z,65.47
2023-02-06T07:00:07.564Z,66.05
2023-02-06T07:02:36.292Z,66.76
2023-02-06T07:05:06.052Z,67.18
2023-02-06T07:07:34.984Z,67.32
2023-02-06T07:10:03.854Z,67.58
2023-02-06T07:12:32.560Z,67.37
2023-02-06T07:15:01.865Z,68.15
2023-02-06T07:17:30.519Z,68.55
2023-02-06T07:20:04.702Z,68.14
2023-02-06T07:22:33.328Z,68.62
2023-02-06T07:25:06.368Z,68.85
2023-02-06T07:27:35.150Z,68.44
2023-02-06T07:30:07.202Z,68.72
2023-02-06T07:32:37.243Z,68.34
2023-02-06T07:35:06.640Z,68.76
2023-02-06T07:37:35.677Z,68.36
2023-02-06T07:40:06.486Z,65.59
2023-02-06T07:42:37.449Z,66.31
2023-02-06T07:45:18.751Z,65.46
2023-02-06T07:47:47.285Z,65.07
2023-02-06T07:50:15.900Z,64.97
2023-02-06T07:52:45.263Z,65.14
2023-02-06T07:55:13.792Z,64.19
2023-02-06T07:57:42.851Z,64.93
2023-02-06T08:00:12.144Z,64.82
2023-02-06T08:02:40.655Z,64.92
2023-02-06T08:05:10.033Z,64.62
2023-02-06T08:07:38.524Z,65.22
2023-02-06T08:10:07.530Z,64.60
2023-02-06T08:12:38.854Z,64.80
2023-02-06T08:15:07.818Z,65.06
2023-02-06T08:17:36.428Z,64.77
2023-02-06T08:20:05.393Z,63.38
2023-02-06T08:22:38.819Z,64.03
2023-02-06T08:25:07.922Z,63.61
2023-02-06T08:27:36.394Z,63.78
2023-02-06T08:30:05.478Z,63.04
2023-02-06T08:32:37.309Z,62.64
2023-02-06T08:35:06.670Z,63.02
2023-02-06T08:37:35.152Z,62.57
2023-02-06T08:40:04.187Z,62.48
2023-02-06T08:42:36.518Z,61.06
2023-02-06T08:45:05.522Z,59.78
2023-02-06T08:47:36.245Z,59.64
2023-02-06T08:50:05.022Z,58.71
2023-02-06T08:52:33.726Z,59.37
2023-02-06T08:55:02.266Z,57.85
2023-02-06T08:57:30.831Z,60.01
2023-02-06T08:59:59.354Z,56.81
2023-02-06T09:02:30.910Z,57.86
2023-02-06T09:04:59.480Z,57.17
2023-02-06T09:07:27.993Z,57.76
2023-02-06T09:09:56.579Z,55.73
2023-02-06T09:12:25.107Z,56.16
2023-02-06T09:14:53.951Z,54.94
2023-02-06T09:17:22.467Z,56.26
2023-02-06T09:19:50.957Z,56.69
2023-02-06T09:22:19.574Z,57.30
2023-02-06T09:24:48.115Z,56.46
2023-02-06T09:27:16.800Z,57.68
2023-02-06T09:29:45.255Z,58.09
2023-02-06T09:32:13.844Z,58.27
2023-02-06T09:34:42.370Z,58.69
2023-02-06T09:37:10.976Z,59.58
2023-02-06T09:39:40.084Z,58.93
2023-02-06T09:42:17.634Z,59.39
2023-02-06T09:44:51.585Z,58.95
2023-02-06T09:47:29.201Z,58.98
2023-02-06T09:50:02.943Z,58.21
2023-02-06T09:52:34.385Z,58.77
2023-02-06T09:55:23.629Z,58.29
2023-02-06T09:57:59.024Z,57.56
2023-02-06T10:00:51.903Z,57.61
2023-02-06T10:03:39.750Z,57.96
2023-02-06T10:06:27.880Z,58.45
2023-02-06T10:09:05.536Z,58.23
2023-02-06T10:11:48.579Z,58.28
2023-02-06T10:14:35.839Z,58.62
2023-02-06T10:17:23.521Z,59.38
2023-02-06T10:20:14.055Z,58.65
2023-02-06T10:23:03.578Z,58.16
2023-02-06T10:25:40.540Z,57.88
2023-02-06T10:28:27.380Z,58.65
2023-02-06T10:30:58.711Z,58.73
2023-02-06T10:33:41.347Z,59.43
2023-02-06T10:36:28.572Z,59.23
2023-02-06T10:39:06.166Z,59.51
2023-02-06T10:42:16.423Z,59.11
2023-02-06T10:45:19.682Z,58.09
2023-02-06T10:47:55.988Z,57.57
2023-02-06T10:50:30.567Z,58.60
2023-02-06T10:53:11.847Z,58.19
2023-02-06T10:55:56.281Z,58.10
2023-02-06T10:58:33.528Z,58.47
2023-02-06T11:01:13.910Z,58.18
2023-02-06T11:04:00.765Z,57.36
2023-02-06T11:06:30.581Z,57.32
2023-02-06T11:08:59.131Z,57.24
2023-02-06T11:11:35.050Z,57.62
2023-02-06T11:14:29.121Z,57.48
2023-02-06T11:17:01.543Z,56.72
2023-02-06T11:19:44.526Z,57.11
2023-02-06T11:22:28.333Z,57.59
2023-02-06T11:25:05.370Z,55.58
2023-02-06T11:27:36.251Z,56.03
2023-02-06T11:30:28.002Z,56.40
2023-02-06T11:33:05.975Z,56.19
2023-02-06T11:35:49.667Z,56.38
2023-02-06T11:38:21.282Z,56.95
2023-02-06T11:41:18.500Z,56.36
2023-02-06T11:43:54.190Z,55.95
2023-02-06T11:46:28.596Z,56.37
2023-02-06T11:48:58.690Z,55.94
2023-02-06T11:51:46.814Z,56.37
2023-02-06T11:54:35.604Z,56.39
2023-02-06T11:57:19.330Z,55.66
2023-02-06T11:59:57.250Z,56.71
2023-02-06T12:02:38.158Z,56.66
2023-02-06T12:05:17.570Z,56.12
2023-02-06T12:08:13.792Z,56.23
2023-02-06T12:10:54.432Z,55.52
2023-02-06T12:13:45.972Z,55.98
2023-02-06T12:16:19.157Z,55.51
2023-02-06T12:18:51.187Z,56.27
2023-02-06T12:21:51.585Z,55.10
2023-02-06T12:24:38.711Z,54.30
2023-02-06T12:27:17.639Z,55.68
2023-02-06T12:30:16.821Z,56.04
2023-02-06T12:32:51.030Z,56.01
2023-02-06T12:35:35.133Z,55.78
2023-02-06T12:38:13.759Z,56.19
2023-02-06T12:41:00.771Z,55.17
2023-02-06T12:43:33.650Z,54.60
2023-02-06T12:46:07.575Z,55.81
2023-02-06T12:48:58.104Z,56.33
2023-02-06T12:51:36.376Z,57.07
2023-02-06T12:54:28.548Z,56.84
2023-02-06T12:57:24.026Z,56.28
2023-02-06T13:00:22.992Z,55.18
2023-02-06T13:03:04.395Z,54.84
2023-02-06T13:05:32.895Z,55.68
2023-02-06T13:08:13.551Z,55.46
2023-02-06T13:10:43.144Z,54.82
2023-02-06T13:13:28.646Z,55.10
2023-02-06T13:16:00.584Z,54.35
2023-02-06T13:18:41.626Z,54.39
2023-02-06T13:21:24.303Z,54.93
2023-02-06T13:24:02.081Z,53.82
2023-02-06T13:26:51.884Z,54.27
2023-02-06T13:29:33.775Z,54.52
2023-02-06T13:32:30.090Z,55.06
2023-02-06T13:35:23.942Z,55.33
2023-02-06T13:38:22.766Z,54.70
2023-02-06T13:41:28.385Z,54.28
2023-02-06T13:44:01.107Z,54.32
2023-02-06T13:47:02.477Z,55.19
2023-02-06T13:50:07.376Z,55.76
2023-02-06T13:53:03.994Z,56.56
2023-02-06T13:56:19.792Z,56.80
2023-02-06T13:58:52.396Z,54.04
2023-02-06T14:01:28.398Z,55.54
2023-02-06T14:03:58.829Z,54.92
2023-02-06T14:06:56.955Z,53.82
2023-02-06T14:09:51.295Z,53.61
2023-02-06T14:12:57.650Z,53.21
2023-02-06T14:15:48.212Z,53.15
2023-02-06T14:18:35.592Z,53.07
2023-02-06T14:21:09.955Z,53.43
2023-02-06T14:24:03.166Z,53.22
2023-02-06T14:26:42.806Z,53.73
2023-02-06T14:29:35.846Z,53.14
2023-02-06T14:32:26.318Z,53.52
2023-02-06T14:35:27.122Z,54.25
2023-02-06T14:38:41.282Z,54.01
2023-02-06T14:41:10.753Z,54.81
2023-02-06T14:43:43.225Z,54.63
2023-02-06T14:46:18.440Z,53.88
2023-02-06T14:48:58.737Z,53.65
2023-02-06T14:51:35.481Z,53.73
2023-02-06T14:54:07.644Z,53.02
2023-02-06T14:56:38.714Z,53.24
2023-02-06T14:59:13.265Z,53.41
2023-02-06T15:01:50.422Z,53.50
2023-02-06T15:04:26.406Z,54.37
2023-02-06T15:07:03.454Z,54.58
2023-02-06T15:09:38.079Z,55.16
2023-02-06T15:12:21.508Z,55.97
2023-02-06T15:14:52.856Z,56.01
2023-02-06T15:17:23.183Z,55.88
2023-02-06T15:19:51.696Z,56.51
2023-02-06T15:22:29.259Z,57.18
2023-02-06T15:25:10.290Z,57.56
2023-02-06T15:27:39.529Z,58.21
2023-02-06T15:30:25.434Z,58.23
2023-02-06T15:32:56.305Z,58.68
2023-02-06T15:35:29.048Z,58.69
2023-02-06T15:38:04.450Z,58.77
2023-02-06T15:40:37.940Z,59.54
2023-02-06T15:43:07.486Z,59.77
2023-02-06T15:45:39.273Z,60.13
2023-02-06T15:48:16.402Z,60.72
2023-02-06T15:51:02.751Z,61.25
2023-02-06T15:53:34.618Z,60.97
2023-02-06T15:56:06.717Z,61.09
2023-02-06T15:58:35.935Z,62.14
2023-02-06T16:01:13.499Z,62.59
2023-02-06T16:03:43.444Z,62.74
2023-02-06T16:06:17.681Z,63.13
2023-02-06T16:08:52.893Z,63.06
2023-02-06T16:11:40.486Z,63.54
2023-02-06T16:14:19.475Z,63.68
2023-02-06T16:17:17.466Z,64.23
2023-02-06T16:20:02.675Z,64.46
2023-02-06T16:22:38.651Z,65.14
2023-02-06T16:25:26.034Z,65.53
2023-02-06T16:27:55.246Z,65.56
2023-02-06T16:30:31.738Z,65.20
2023-02-06T16:33:37.684Z,66.25
2023-02-06T16:36:07.047Z,66.07
2023-02-06T16:38:35.546Z,66.53
2023-02-06T16:41:04.114Z,66.03
2023-02-06T16:43:32.679Z,65.73
2023-02-06T16:46:02.402Z,65.69
2023-02-06T16:48:30.971Z,65.91
2023-02-06T16:50:59.683Z,66.02
2023-02-06T16:53:29.272Z,66.34
2023-02-06T16:55:58.795Z,66.13
2023-02-06T16:59:15.222Z,66.45
2023-02-06T17:01:44.000Z,67.06
2023-02-06T17:04:12.561Z,66.63
2023-02-06T17:06:41.427Z,66.16
2023-02-06T17:09:14.239Z,66.30
2023-02-06T17:11:42.592Z,66.49
2023-02-06T17:14:11.959Z,66.95
2023-02-06T17:16:40.480Z,67.06
2023-02-06T17:19:11.455Z,67.23
2023-02-06T17:21:39.988Z,67.26
2023-02-06T17:24:09.295Z,67.14
2023-02-06T17:26:38.193Z,67.70
2023-02-06T17:29:06.746Z,67.66
2023-02-06T17:31:35.379Z,68.02
2023-02-06T17:34:04.001Z,67.97
2023-02-06T17:36:39.756Z,68.16
2023-02-06T17:39:08.273Z,69.01
2023-02-06T17:41:37.162Z,68.25
2023-02-06T17:44:05.715Z,68.66
2023-02-06T17:46:34.442Z,68.64
2023-02-06T17:49:03.083Z,68.49
2023-02-06T17:51:32.419Z,68.45
2023-02-06T17:54:01.196Z,69.16
2023-02-06T17:56:29.696Z,68.74
2023-02-06T17:58:58.227Z,68.91
2023-02-06T18:01:27.547Z,69.07
2023-02-06T18:03:56.263Z,69.78
2023-02-06T18:06:24.752Z,69.94
2023-02-06T18:08:53.217Z,70.15
2023-02-06T18:11:22.298Z,70.04
2023-02-06T18:13:51.105Z,70.05
2023-02-06T18:16:23.628Z,70.17
2023-02-06T18:18:52.587Z,70.39
2023-02-06T18:21:22.042Z,70.44
2023-02-06T18:23:52.700Z,70.89
2023-02-06T18:26:22.230Z,71.05
2023-02-06T18:28:52.198Z,70.72
2023-02-06T18:31:23.591Z,71.01
2023-02-06T18:33:53.592Z,71.16
2023-02-06T18:36:22.750Z,71.27
2023-02-06T18:38:51.841Z,71.41
2023-02-06T18:41:39.647Z,71.29
2023-02-06T18:44:10.622Z,70.84
2023-02-06T18:46:39.781Z,70.92
2023-02-06T18:49:09.968Z,71.13
2023-02-06T18:51:38.825Z,71.49
2023-02-06T18:54:08.217Z,71.43
2023-02-06T18:56:38.229Z,71.75
2023-02-06T18:59:06.916Z,72.03
2023-02-06T19:01:35.714Z,72.27
2023-02-06T19:04:04.354Z,72.65
2023-02-06T19:06:36.649Z,72.77
2023-02-06T19:09:07.857Z,73.20
2023-02-06T19:11:37.920Z,73.25
2023-02-06T19:14:08.614Z,73.16
2023-02-06T19:16:41.109Z,72.98
2023-02-06T19:19:11.891Z,72.88
2023-02-06T19:21:41.056Z,72.85
2023-02-06T19:24:13.097Z,73.08
2023-02-06T19:26:42.533Z,73.19
2023-02-06T19:29:15.533Z,73.94
2023-02-06T19:31:44.277Z,73.66
2023-02-06T19:34:13.140Z,73.80
2023-02-06T19:36:42.398Z,73.62
2023-02-06T19:39:13.285Z,74.00
2023-02-06T19:41:41.861Z,73.85
2023-02-06T19:44:14.141Z,73.50
2023-02-06T19:46:42.981Z,73.55
2023-02-06T19:49:13.966Z,73.83
2023-02-06T19:51:44.914Z,73.93
2023-02-06T19:54:14.693Z,74.44
2023-02-06T19:56:46.289Z,74.35
2023-02-06T19:59:22.569Z,74.23
2023-02-06T20:01:56.841Z,74.35
2023-02-06T20:04:31.239Z,74.66
2023-02-06T20:07:00.062Z,74.57
2023-02-06T20:09:31.658Z,74.33
2023-02-06T20:12:00.625Z,74.17
2023-02-06T20:14:29.490Z,73.93
2023-02-06T20:16:58.321Z,74.13
2023-02-06T20:19:28.941Z,73.99
2023-02-06T20:22:00.177Z,73.99
2023-02-06T20:24:32.224Z,74.14
2023-02-06T20:27:04.490Z,74.28
2023-02-06T20:29:46.026Z,74.04
2023-02-06T20:32:19.571Z,73.98
2023-02-06T20:34:48.145Z,74.35
2023-02-06T20:37:17.970Z,74.30
2023-02-06T20:39:49.567Z,74.33
2023-02-06T20:42:19.551Z,74.31
2023-02-06T20:44:49.615Z,74.29
2023-02-06T20:47:18.246Z,74.33
2023-02-06T20:49:49.491Z,74.41
2023-02-06T20:52:19.416Z,74.19
2023-02-06T20:54:48.009Z,74.35
2023-02-06T20:57:16.670Z,74.44
2023-02-06T20:59:45.464Z,73.86
2023-02-06T21:02:14.181Z,73.79
2023-02-06T21:04:43.053Z,73.55
2023-02-06T21:07:11.892Z,73.53
2023-02-06T21:09:44.447Z,73.53
2023-02-06T21:12:13.538Z,74.00
2023-02-06T21:14:42.390Z,73.95
2023-02-06T21:17:11.392Z,74.22
2023-02-06T21:19:40.179Z,74.04
2023-02-06T21:22:09.174Z,74.26
2023-02-06T21:24:37.948Z,74.27
2023-02-06T21:27:06.628Z,74.52
2023-02-06T21:29:35.324Z,74.66
2023-02-06T21:32:13.671Z,74.44
2023-02-06T21:34:43.353Z,74.49
2023-02-06T21:37:12.249Z,74.45
2023-02-06T21:39:41.855Z,74.26
2023-02-06T21:42:11.695Z,74.05
2023-02-06T21:44:40.759Z,74.49
2023-02-06T21:47:10.342Z,74.04
2023-02-06T21:49:38.955Z,74.05
2023-02-06T21:52:07.848Z,73.91
2023-02-06T21:54:36.461Z,73.78
2023-02-06T21:57:14.863Z,73.67
2023-02-06T21:59:45.383Z,73.47
2023-02-06T22:02:23.479Z,73.88
2023-02-06T22:04:52.260Z,73.44
2023-02-06T22:07:20.957Z,73.15
2023-02-06T22:09:49.530Z,73.90
2023-02-06T22:12:18.111Z,73.35
2023-02-06T22:14:46.794Z,73.10
2023-02-06T22:17:15.505Z,73.03
2023-02-06T22:19:44.176Z,73.09
2023-02-06T22:22:12.866Z,72.94
2023-02-06T22:24:41.743Z,73.11
2023-02-06T22:27:11.790Z,73.09
2023-02-06T22:29:40.553Z,73.23
2023-02-06T22:32:09.260Z,73.10
2023-02-06T22:34:38.018Z,72.94
2023-02-06T22:37:06.765Z,72.95
2023-02-06T22:39:35.643Z,72.73
2023-02-06T22:42:04.489Z,73.02
2023-02-06T22:44:33.119Z,72.70
2023-02-06T22:47:01.859Z,72.81
2023-02-06T22:49:30.569Z,72.75
2023-02-06T22:51:59.340Z,72.62
2023-02-06T22:54:31.199Z,72.81
2023-02-06T22:57:01.410Z,73.30
2023-02-06T22:59:33.129Z,73.20
2023-02-06T23:02:07.527Z,73.32
2023-02-06T23:04:38.533Z,73.21
2023-02-06T23:07:07.726Z,74.06
2023-02-06T23:09:38.524Z,73.62
2023-02-06T23:12:11.662Z,73.03
2023-02-06T23:14:40.382Z,73.32
2023-02-06T23:17:10.704Z,73.21
2023-02-06T23:19:40.285Z,72.66
2023-02-06T23:22:10.917Z,72.46
2023-02-06T23:24:39.588Z,72.53
2023-02-06T23:27:10.630Z,72.09
2023-02-06T23:29:39.431Z,72.23
2023-02-06T23:32:08.212Z,72.26
2023-02-06T23:34:39.050Z,72.05
2023-02-06T23:37:07.846Z,72.34
2023-02-06T23:39:36.411Z,72.63
2023-02-06T23:42:09.705Z,72.99
2023-02-06T23:44:38.282Z,73.09
2023-02-06T23:47:12.856Z,73.17
2023-02-06T23:49:41.593Z,73.03
2023-02-06T23:52:10.284Z,73.02
2023-02-06T23:54:38.981Z,72.84
2023-02-06T23:57:07.861Z,72.92
2023-02-06T23:59:36.354Z,72.70
